createdAt,value
2022-12-31T00:01:23.364Z,0.70
2022-12-31T00:03:50.445Z,0.50
2022-12-31T00:06:21.559Z,0.80
2022-12-31T00:08:48.416Z,0.77
2022-12-31T00:11:15.809Z,0.73
2022-12-31T00:13:43.106Z,0.90
2022-12-31T00:16:12.536Z,0.87
2022-12-31T00:18:43.491Z,0.97
2022-12-31T00:21:10.563Z,0.93
2022-12-31T00:23:37.088Z,0.60
2022-12-31T00:26:04.864Z,1.03
2022-12-31T00:28:31.692Z,1.03
2022-12-31T00:31:04.707Z,1.20
2022-12-31T00:33:31.112Z,1.27
2022-12-31T00:36:07.632Z,1.10
2022-12-31T00:38:34.136Z,1.40
2022-12-31T00:41:00.589Z,1.40
2022-12-31T00:43:27.285Z,1.33
2022-12-31T00:45:54.250Z,1.40
2022-12-31T00:48:20.937Z,1.50
2022-12-31T00:50:47.548Z,1.47
2022-12-31T00:53:14.887Z,1.30
2022-12-31T00:55:41.388Z,1.50
2022-12-31T00:58:07.536Z,1.30
2022-12-31T01:00:33.701Z,1.40
2022-12-31T01:03:00.916Z,1.40
2022-12-31T01:05:27.600Z,1.60
2022-12-31T01:07:54.063Z,1.33
2022-12-31T01:10:35.857Z,1.73
2022-12-31T01:13:02.770Z,1.50
2022-12-31T01:15:33.241Z,1.50
2022-12-31T01:17:59.529Z,1.50
2022-12-31T01:20:25.887Z,1.23
2022-12-31T01:22:52.274Z,1.40
2022-12-31T01:25:18.749Z,1.10
2022-12-31T01:27:45.685Z,1.20
2022-12-31T01:30:12.604Z,1.20
2022-12-31T01:32:39.210Z,1.10
2022-12-31T01:35:06.197Z,1.10
2022-12-31T01:37:32.674Z,1.73
2022-12-31T01:39:59.124Z,1.40
2022-12-31T01:42:25.345Z,0.93
2022-12-31T01:44:54.563Z,0.87
2022-12-31T01:47:29.078Z,0.90
2022-12-31T01:49:58.007Z,0.83
2022-12-31T01:52:27.920Z,0.97
2022-12-31T01:54:56.677Z,0.90
2022-12-31T01:57:23.715Z,0.77
2022-12-31T01:59:50.232Z,0.60
2022-12-31T02:02:17.683Z,0.50
2022-12-31T02:04:44.206Z,0.40
2022-12-31T02:07:11.484Z,0.27
2022-12-31T02:09:39.975Z,0.30
2022-12-31T02:12:07.539Z,0.30
2022-12-31T02:14:37.504Z,0.30
2022-12-31T02:17:08.924Z,0.40
2022-12-31T02:20:07.134Z,0.17
2022-12-31T02:22:47.453Z,0.13
2022-12-31T02:25:27.086Z,0.20
2022-12-31T02:28:03.589Z,0.13
2022-12-31T02:30:31.904Z,0.10
2022-12-31T02:33:06.111Z,0.03
2022-12-31T02:35:43.073Z,0.30
2022-12-31T02:38:13.639Z,0.10
2022-12-31T02:40:40.734Z,0.20
2022-12-31T02:43:08.216Z,0.20
2022-12-31T02:45:37.587Z,0.20
2022-12-31T02:48:29.022Z,0.20
2022-12-31T02:51:02.807Z,0.40
2022-12-31T02:53:57.029Z,0.83
2022-12-31T02:56:27.345Z,0.30
2022-12-31T02:59:18.310Z,0.40
2022-12-31T03:02:05.045Z,0.30
2022-12-31T03:04:32.413Z,0.30
2022-12-31T03:07:00.065Z,0.50
2022-12-31T03:09:26.223Z,0.40
2022-12-31T03:12:10.916Z,0.40
2022-12-31T03:14:37.302Z,0.30
2022-12-31T03:17:04.482Z,0.40
2022-12-31T03:19:48.901Z,0.20
2022-12-31T03:22:35.922Z,0.40
2022-12-31T03:25:22.745Z,0.40
2022-12-31T03:27:48.973Z,0.40
2022-12-31T03:30:17.167Z,0.40
2022-12-31T03:32:45.925Z,0.30
2022-12-31T03:35:13.124Z,0.40
2022-12-31T03:37:39.491Z,0.57
2022-12-31T03:40:07.713Z,0.30
2022-12-31T03:42:34.312Z,0.40
2022-12-31T03:45:00.981Z,0.43
2022-12-31T03:47:27.603Z,0.30
2022-12-31T03:49:54.603Z,0.30
2022-12-31T03:52:21.063Z,0.30
2022-12-31T03:54:47.380Z,0.30
2022-12-31T03:57:13.812Z,0.20
2022-12-31T03:59:40.007Z,0.20
2022-12-31T04:02:06.855Z,0.20
2022-12-31T04:04:33.208Z,0.37
2022-12-31T04:07:00.003Z,0.20
2022-12-31T04:09:26.268Z,0.40
2022-12-31T04:11:52.644Z,0.30
2022-12-31T04:14:19.051Z,0.30
2022-12-31T04:16:45.458Z,0.50
2022-12-31T04:19:12.144Z,0.33
2022-12-31T04:21:38.549Z,0.20
2022-12-31T04:24:06.325Z,0.30
2022-12-31T04:26:32.902Z,0.40
2022-12-31T04:28:59.464Z,0.40
2022-12-31T04:31:25.999Z,0.47
2022-12-31T04:33:52.656Z,0.50
2022-12-31T04:36:19.034Z,0.50
2022-12-31T04:38:45.227Z,0.40
2022-12-31T04:41:18.103Z,0.67
2022-12-31T04:43:45.845Z,0.20
2022-12-31T04:46:12.752Z,0.40
2022-12-31T04:48:39.140Z,0.40
2022-12-31T04:51:05.746Z,0.37
2022-12-31T04:53:32.289Z,0.50
2022-12-31T04:55:58.674Z,0.63
2022-12-31T04:58:25.612Z,0.43
2022-12-31T05:00:55.739Z,0.50
2022-12-31T05:03:23.905Z,0.40
2022-12-31T05:05:50.556Z,0.70
2022-12-31T05:08:17.583Z,0.40
2022-12-31T05:10:45.653Z,0.53
2022-12-31T05:13:12.287Z,0.30
2022-12-31T05:15:39.524Z,0.53
2022-12-31T05:18:06.286Z,0.57
2022-12-31T05:20:32.787Z,0.40
2022-12-31T05:22:59.240Z,0.60
2022-12-31T05:25:25.601Z,0.40
2022-12-31T05:27:51.957Z,0.40
2022-12-31T05:30:18.577Z,0.30
2022-12-31T05:32:46.088Z,0.60
2022-12-31T05:35:12.989Z,0.40
2022-12-31T05:37:39.667Z,0.70
2022-12-31T05:40:07.211Z,0.60
2022-12-31T05:42:33.982Z,0.60
2022-12-31T05:45:00.421Z,0.87
2022-12-31T05:47:28.655Z,0.67
2022-12-31T05:49:55.668Z,0.50
2022-12-31T05:52:22.310Z,0.57
2022-12-31T05:54:48.498Z,0.53
2022-12-31T05:57:14.750Z,0.60
2022-12-31T05:59:41.065Z,0.60
2022-12-31T06:02:07.440Z,0.50
2022-12-31T06:04:33.793Z,0.70
2022-12-31T06:07:00.697Z,0.40
2022-12-31T06:09:26.934Z,1.00
2022-12-31T06:11:53.113Z,0.77
2022-12-31T06:14:19.363Z,0.60
2022-12-31T06:16:45.579Z,0.80
2022-12-31T06:19:11.724Z,0.60
2022-12-31T06:21:37.886Z,0.50
2022-12-31T06:24:05.466Z,1.43
2022-12-31T06:26:31.644Z,1.00
2022-12-31T06:28:57.844Z,0.80
2022-12-31T06:31:24.036Z,0.67
2022-12-31T06:33:50.254Z,0.60
2022-12-31T06:36:16.631Z,0.87
2022-12-31T06:38:43.658Z,1.07
2022-12-31T06:41:13.073Z,0.80
2022-12-31T06:43:39.918Z,0.83
2022-12-31T06:46:11.990Z,0.80
2022-12-31T06:48:38.562Z,0.80
2022-12-31T06:51:05.603Z,0.80
2022-12-31T06:53:31.856Z,0.70
2022-12-31T06:55:58.632Z,0.70
2022-12-31T06:58:26.163Z,0.90
2022-12-31T07:00:58.191Z,0.70
2022-12-31T07:03:30.276Z,0.70
2022-12-31T07:05:59.555Z,1.07
2022-12-31T07:08:42.941Z,0.70
2022-12-31T07:11:14.477Z,0.80
2022-12-31T07:13:59.100Z,0.80
2022-12-31T07:16:32.583Z,0.73
2022-12-31T07:19:08.771Z,0.63
2022-12-31T07:21:37.063Z,0.90
2022-12-31T07:24:05.597Z,0.63
2022-12-31T07:26:43.925Z,0.70
2022-12-31T07:29:15.734Z,0.63
2022-12-31T07:31:52.474Z,0.67
2022-12-31T07:34:22.443Z,0.60
2022-12-31T07:36:59.200Z,0.80
2022-12-31T07:39:31.794Z,0.90
2022-12-31T07:42:04.495Z,0.90
2022-12-31T07:44:40.020Z,0.87
2022-12-31T07:47:20.245Z,0.80
2022-12-31T07:49:47.160Z,1.10
2022-12-31T07:52:13.981Z,0.70
2022-12-31T07:54:40.267Z,0.70
2022-12-31T07:57:06.695Z,0.80
2022-12-31T07:59:44.866Z,0.83
2022-12-31T08:02:18.124Z,0.70
2022-12-31T08:04:50.645Z,0.80
2022-12-31T08:07:21.246Z,0.70
2022-12-31T08:09:55.821Z,0.90
2022-12-31T08:12:22.943Z,0.80
2022-12-31T08:14:50.304Z,0.80
2022-12-31T08:17:18.272Z,0.70
2022-12-31T08:19:45.354Z,1.30
2022-12-31T08:22:28.352Z,0.70
2022-12-31T08:25:10.801Z,0.90
2022-12-31T08:27:50.554Z,0.97
2022-12-31T08:30:19.072Z,0.63
2022-12-31T08:32:48.632Z,1.03
2022-12-31T08:35:27.250Z,0.73
2022-12-31T08:37:59.499Z,0.93
2022-12-31T08:40:28.919Z,1.20
2022-12-31T08:43:13.973Z,1.20
2022-12-31T08:45:44.042Z,1.07
2022-12-31T08:48:18.067Z,0.80
2022-12-31T08:50:44.592Z,0.70
2022-12-31T08:53:11.350Z,0.73
2022-12-31T08:55:38.235Z,0.90
2022-12-31T08:58:12.188Z,1.00
2022-12-31T09:00:38.614Z,0.90
2022-12-31T09:03:25.692Z,0.83
2022-12-31T09:05:58.030Z,0.80
2022-12-31T09:08:30.185Z,0.93
2022-12-31T09:10:59.481Z,0.87
2022-12-31T09:13:33.579Z,0.87
2022-12-31T09:16:07.012Z,0.90
2022-12-31T09:18:37.974Z,1.10
2022-12-31T09:21:04.682Z,0.80
2022-12-31T09:23:32.007Z,0.90
2022-12-31T09:26:02.945Z,0.70
2022-12-31T09:28:37.973Z,1.00
2022-12-31T09:31:09.155Z,1.07
2022-12-31T09:33:41.507Z,1.00
2022-12-31T09:36:09.555Z,1.00
2022-12-31T09:38:42.306Z,0.90
2022-12-31T09:41:15.761Z,1.30
2022-12-31T09:44:18.185Z,1.10
2022-12-31T09:47:16.612Z,0.90
2022-12-31T09:50:35.062Z,1.00
2022-12-31T09:53:19.530Z,0.90
2022-12-31T09:55:49.133Z,1.10
2022-12-31T09:58:24.442Z,1.57
2022-12-31T10:00:53.362Z,1.10
2022-12-31T10:03:31.714Z,0.97
2022-12-31T10:06:14.210Z,1.27
2022-12-31T10:08:53.453Z,1.23
2022-12-31T10:11:29.483Z,0.90
2022-12-31T10:14:07.546Z,1.00
2022-12-31T10:16:52.743Z,0.87
2022-12-31T10:19:41.255Z,1.20
2022-12-31T10:22:18.282Z,1.33
2022-12-31T10:24:54.127Z,1.03
2022-12-31T10:27:29.111Z,1.10
2022-12-31T10:29:59.154Z,1.20
2022-12-31T10:32:34.110Z,0.90
2022-12-31T10:35:01.703Z,1.07
2022-12-31T10:37:29.338Z,1.20
2022-12-31T10:40:11.841Z,1.07
2022-12-31T10:43:13.870Z,1.10
2022-12-31T10:46:04.539Z,1.10
2022-12-31T10:49:07.041Z,1.00
2022-12-31T10:51:59.080Z,1.20
2022-12-31T10:55:05.871Z,1.13
2022-12-31T10:58:04.880Z,1.10
2022-12-31T11:00:34.397Z,1.03
2022-12-31T11:03:36.690Z,1.17
2022-12-31T11:06:25.698Z,1.57
2022-12-31T11:09:12.579Z,1.00
2022-12-31T11:11:47.920Z,1.40
2022-12-31T11:14:51.263Z,1.13
2022-12-31T11:17:27.746Z,1.30
2022-12-31T11:20:03.381Z,0.90
2022-12-31T11:22:48.145Z,1.20
2022-12-31T11:25:32.564Z,0.83
2022-12-31T11:28:12.663Z,0.90
2022-12-31T11:30:47.031Z,1.10
2022-12-31T11:33:23.259Z,1.30
2022-12-31T11:36:04.104Z,0.90
2022-12-31T11:38:32.937Z,1.10
2022-12-31T11:41:02.831Z,1.17
2022-12-31T11:43:34.807Z,1.23
2022-12-31T11:46:18.288Z,1.50
2022-12-31T11:49:00.323Z,0.97
2022-12-31T11:51:39.144Z,1.00
2022-12-31T11:54:27.963Z,1.33
2022-12-31T11:57:02.748Z,0.93
2022-12-31T11:59:29.047Z,1.30
2022-12-31T12:01:58.524Z,1.20
2022-12-31T12:04:25.395Z,0.90
2022-12-31T12:06:52.050Z,1.17
2022-12-31T12:09:24.569Z,1.13
2022-12-31T12:11:58.234Z,1.10
2022-12-31T12:14:31.267Z,0.80
2022-12-31T12:17:02.622Z,1.27
2022-12-31T12:19:32.991Z,1.30
2022-12-31T12:22:09.519Z,1.10
2022-12-31T12:24:35.783Z,1.20
2022-12-31T12:27:02.050Z,1.33
2022-12-31T12:29:29.831Z,1.20
2022-12-31T12:31:57.669Z,1.03
2022-12-31T12:34:26.166Z,1.30
2022-12-31T12:36:53.268Z,1.10
2022-12-31T12:39:21.862Z,1.43
2022-12-31T12:41:59.622Z,1.43
2022-12-31T12:44:25.924Z,1.33
2022-12-31T12:46:52.607Z,1.20
2022-12-31T12:49:23.319Z,1.10
2022-12-31T12:52:13.340Z,1.40
2022-12-31T12:54:51.909Z,1.13
2022-12-31T12:57:22.641Z,1.00
2022-12-31T13:00:13.143Z,1.50
2022-12-31T13:03:20.243Z,1.23
2022-12-31T13:06:05.223Z,1.23
2022-12-31T13:08:44.307Z,1.07
2022-12-31T13:11:21.982Z,1.23
2022-12-31T13:13:52.025Z,1.20
2022-12-31T13:16:22.527Z,1.23
2022-12-31T13:18:55.496Z,1.33
2022-12-31T13:21:41.533Z,1.00
2022-12-31T13:24:23.630Z,1.13
2022-12-31T13:26:54.657Z,1.40
2022-12-31T13:29:24.749Z,1.30
2022-12-31T13:31:51.803Z,1.13
2022-12-31T13:34:22.206Z,1.17
2022-12-31T13:36:50.690Z,1.13
2022-12-31T13:39:21.584Z,1.30
2022-12-31T13:41:52.303Z,1.20
2022-12-31T13:44:25.801Z,1.10
2022-12-31T13:46:56.569Z,1.40
2022-12-31T13:49:26.497Z,1.00
2022-12-31T13:51:57.605Z,1.17
2022-12-31T13:54:34.807Z,2.23
2022-12-31T13:57:04.500Z,1.40
2022-12-31T13:59:34.495Z,1.30
2022-12-31T14:02:04.340Z,1.37
2022-12-31T14:04:33.967Z,1.67
2022-12-31T14:07:04.437Z,1.40
2022-12-31T14:09:34.345Z,1.50
2022-12-31T14:12:13.791Z,1.43
2022-12-31T14:14:44.730Z,1.53
2022-12-31T14:17:18.003Z,1.73
2022-12-31T14:19:54.641Z,1.50
2022-12-31T14:22:27.447Z,1.60
2022-12-31T14:24:55.390Z,1.60
2022-12-31T14:27:24.610Z,1.40
2022-12-31T14:29:53.781Z,1.43
2022-12-31T14:32:42.175Z,1.80
2022-12-31T14:35:23.397Z,1.37
2022-12-31T14:37:55.962Z,1.53
2022-12-31T14:40:27.757Z,1.73
2022-12-31T14:43:04.081Z,1.50
2022-12-31T14:45:40.143Z,1.57
2022-12-31T14:48:21.585Z,1.37
2022-12-31T14:50:48.526Z,1.17
2022-12-31T14:53:20.676Z,1.57
2022-12-31T14:55:56.409Z,1.50
2022-12-31T14:58:28.657Z,1.80
2022-12-31T15:00:56.733Z,1.47
2022-12-31T15:03:25.469Z,2.00
2022-12-31T15:05:53.545Z,1.87
2022-12-31T15:08:32.544Z,2.37
2022-12-31T15:11:10.689Z,2.00
2022-12-31T15:13:49.287Z,1.53
2022-12-31T15:16:23.505Z,2.20
2022-12-31T15:19:03.033Z,1.90
2022-12-31T15:21:39.997Z,1.97
2022-12-31T15:24:16.550Z,1.80
2022-12-31T15:26:48.261Z,1.83
2022-12-31T15:29:24.282Z,1.90
2022-12-31T15:31:50.685Z,2.20
2022-12-31T15:34:25.385Z,1.77
2022-12-31T15:36:53.022Z,1.53
2022-12-31T15:39:36.530Z,1.90
2022-12-31T15:42:36.912Z,1.60
2022-12-31T15:44:56.079Z,1.47
2022-12-31T15:47:28.043Z,1.30
2022-12-31T15:49:54.774Z,1.87
2022-12-31T15:52:25.336Z,1.83
2022-12-31T15:54:55.737Z,1.53
2022-12-31T15:57:29.822Z,1.73
2022-12-31T15:59:58.565Z,1.50
2022-12-31T16:02:26.785Z,1.50
2022-12-31T16:04:54.496Z,1.77
2022-12-31T16:07:21.227Z,1.47
2022-12-31T16:09:51.503Z,1.70
2022-12-31T16:12:20.820Z,1.50
2022-12-31T16:14:51.319Z,1.50
2022-12-31T16:17:27.424Z,1.50
2022-12-31T16:19:55.014Z,1.60
2022-12-31T16:22:25.797Z,1.50
2022-12-31T16:25:29.071Z,1.70
2022-12-31T16:27:41.291Z,2.47
2022-12-31T16:30:20.706Z,1.93
2022-12-31T16:32:49.090Z,1.53
2022-12-31T16:35:24.164Z,1.87
2022-12-31T16:38:01.487Z,1.37
2022-12-31T16:40:28.403Z,2.00
2022-12-31T16:42:54.886Z,1.40
2022-12-31T16:45:31.145Z,1.73
2022-12-31T16:47:58.977Z,1.60
2022-12-31T16:50:25.697Z,1.80
2022-12-31T16:52:57.500Z,1.77
2022-12-31T16:55:25.906Z,1.40
2022-12-31T16:57:55.040Z,1.57
2022-12-31T17:00:24.007Z,1.40
2022-12-31T17:02:59.196Z,1.70
2022-12-31T17:05:27.243Z,1.50
2022-12-31T17:07:54.942Z,1.73
2022-12-31T17:10:23.163Z,1.70
2022-12-31T17:15:42.598Z,1.30
2022-12-31T17:18:17.254Z,1.90
2022-12-31T17:20:43.610Z,1.80
2022-12-31T17:23:19.740Z,1.87
2022-12-31T17:25:46.230Z,1.97
2022-12-31T17:28:21.988Z,2.13
2022-12-31T17:30:49.219Z,2.10
2022-12-31T17:37:17.835Z,2.17
2022-12-31T17:39:47.215Z,1.90
2022-12-31T17:42:16.344Z,1.50
2022-12-31T17:44:43.651Z,2.13
2022-12-31T17:47:13.161Z,1.97
2022-12-31T17:49:41.037Z,2.43
2022-12-31T17:52:11.838Z,2.03
2022-12-31T17:54:38.520Z,15.40
2022-12-31T17:57:04.983Z,2.40
2022-12-31T18:03:12.986Z,2.23
2022-12-31T18:05:39.159Z,7.80
2022-12-31T18:08:06.063Z,3.37
2022-12-31T18:10:36.650Z,2.53
2022-12-31T18:13:04.040Z,2.87
2022-12-31T18:15:30.428Z,2.83
2022-12-31T18:17:56.646Z,2.50
2022-12-31T18:20:23.148Z,2.43
2022-12-31T18:22:50.066Z,2.13
2022-12-31T18:25:19.519Z,2.63
2022-12-31T18:27:45.953Z,2.60
2022-12-31T18:30:12.940Z,2.17
2022-12-31T18:32:40.476Z,2.13
2022-12-31T18:35:26.715Z,2.50
2022-12-31T18:37:58.565Z,1.90
2022-12-31T18:40:25.410Z,2.07
2022-12-31T18:42:51.841Z,2.50
2022-12-31T18:49:06.183Z,1.93
2022-12-31T18:51:32.787Z,2.10
2022-12-31T18:53:59.354Z,3.33
2022-12-31T18:56:26.612Z,2.40
2022-12-31T18:58:52.907Z,2.10
2022-12-31T19:01:28.338Z,2.10
2022-12-31T19:03:55.525Z,2.13
2022-12-31T19:06:22.108Z,2.20
2022-12-31T19:08:48.402Z,2.27
2022-12-31T19:11:15.051Z,2.10
2022-12-31T19:13:45.987Z,4.10
2022-12-31T19:16:13.218Z,2.23
2022-12-31T19:18:40.202Z,3.60
2022-12-31T19:21:09.251Z,2.53
2022-12-31T19:23:35.637Z,2.33
2022-12-31T19:26:01.817Z,3.23
2022-12-31T19:28:28.021Z,2.13
2022-12-31T19:30:54.972Z,2.30
2022-12-31T19:33:21.207Z,1.90
2022-12-31T19:35:47.556Z,1.83
2022-12-31T19:38:18.208Z,2.33
2022-12-31T19:40:44.504Z,2.20
2022-12-31T19:43:11.726Z,2.37
2022-12-31T19:45:37.954Z,2.07
2022-12-31T19:48:06.177Z,2.53
2022-12-31T19:50:32.806Z,2.70
2022-12-31T19:52:59.958Z,1.83
2022-12-31T19:55:26.277Z,2.00
2022-12-31T19:57:52.595Z,2.00
2022-12-31T20:00:19.562Z,2.17
2022-12-31T20:02:47.735Z,2.63
2022-12-31T20:05:15.798Z,2.30
2022-12-31T20:07:42.155Z,2.10
2022-12-31T20:10:10.022Z,2.30
2022-12-31T20:12:42.230Z,2.50
2022-12-31T20:15:10.675Z,2.37
2022-12-31T20:17:36.960Z,2.53
2022-12-31T20:20:03.783Z,2.57
2022-12-31T20:22:30.914Z,2.47
2022-12-31T20:24:57.462Z,1.93
2022-12-31T20:27:23.735Z,2.10
2022-12-31T20:29:49.995Z,2.37
2022-12-31T20:32:16.181Z,2.33
2022-12-31T20:34:42.374Z,2.20
2022-12-31T20:37:08.548Z,2.20
2022-12-31T20:39:35.410Z,1.97
2022-12-31T20:42:01.709Z,2.20
2022-12-31T20:44:27.985Z,2.20
2022-12-31T20:46:54.380Z,2.50
2022-12-31T20:49:37.123Z,2.30
2022-12-31T20:52:06.880Z,2.40
2022-12-31T20:54:33.007Z,3.10
2022-12-31T20:56:59.857Z,2.30
2022-12-31T20:59:26.306Z,3.00
2022-12-31T21:02:20.540Z,2.37
2022-12-31T21:04:38.964Z,2.50
2022-12-31T21:07:05.250Z,3.30
2022-12-31T21:09:31.577Z,3.33
2022-12-31T21:12:16.231Z,2.43
2022-12-31T21:14:45.021Z,2.30
2022-12-31T21:17:11.438Z,4.27
2022-12-31T21:19:37.625Z,2.63
2022-12-31T21:22:03.901Z,2.43
2022-12-31T21:24:30.123Z,2.60
2022-12-31T21:26:56.245Z,2.60
2022-12-31T21:29:22.537Z,3.23
2022-12-31T21:31:49.357Z,3.60
2022-12-31T21:34:15.551Z,3.40
2022-12-31T21:36:41.767Z,3.07
2022-12-31T21:39:07.921Z,2.93
2022-12-31T21:41:52.566Z,2.50
2022-12-31T21:44:20.056Z,2.80
2022-12-31T21:47:15.740Z,2.50
2022-12-31T21:49:33.174Z,2.40
2022-12-31T21:52:17.781Z,3.03
2022-12-31T21:55:02.196Z,3.57
2022-12-31T21:57:28.407Z,2.40
2022-12-31T22:00:40.297Z,2.40
2022-12-31T22:03:17.783Z,2.60
2022-12-31T22:05:50.464Z,2.70
2022-12-31T22:08:16.736Z,2.80
2022-12-31T22:10:51.910Z,2.87
2022-12-31T22:13:18.998Z,2.57
2022-12-31T22:15:46.324Z,3.43
2022-12-31T22:18:13.300Z,3.30
2022-12-31T22:20:39.586Z,2.47
2022-12-31T22:23:06.724Z,2.57
2022-12-31T22:25:33.710Z,2.63
2022-12-31T22:28:36.080Z,3.10
2022-12-31T22:30:47.245Z,2.60
2022-12-31T22:33:13.736Z,3.10
2022-12-31T22:35:40.306Z,4.47
2022-12-31T22:38:11.870Z,2.40
2022-12-31T22:40:38.697Z,2.50
2022-12-31T22:43:04.984Z,2.80
2022-12-31T22:45:31.325Z,3.07
2022-12-31T22:47:59.607Z,3.27
2022-12-31T22:50:26.082Z,3.00
2022-12-31T22:52:52.336Z,3.40
2022-12-31T22:55:19.292Z,3.50
2022-12-31T22:57:45.639Z,3.83
2022-12-31T23:00:13.848Z,4.73
2022-12-31T23:02:42.314Z,11.60
2022-12-31T23:05:15.263Z,17.13
2022-12-31T23:07:42.580Z,70.23
2022-12-31T23:10:27.832Z,35.27
2022-12-31T23:12:54.989Z,61.33
2022-12-31T23:15:39.656Z,54.03
2022-12-31T23:18:24.125Z,61.83
2022-12-31T23:21:08.761Z,50.33
2022-12-31T23:23:34.923Z,60.00
2022-12-31T23:26:02.485Z,49.47
2022-12-31T23:28:29.361Z,46.63
2022-12-31T23:30:55.562Z,33.30
2022-12-31T23:33:23.112Z,33.47
2022-12-31T23:35:49.314Z,33.17
2022-12-31T23:38:16.879Z,26.03
2022-12-31T23:40:43.261Z,28.07
2022-12-31T23:43:10.061Z,23.57
2022-12-31T23:45:36.935Z,21.97
2022-12-31T23:48:03.543Z,33.80
2022-12-31T23:50:29.737Z,20.17
2022-12-31T23:52:56.079Z,26.00
2022-12-31T23:55:22.305Z,22.70
2022-12-31T23:57:48.574Z,36.67
